sensor_id;sensor_type;location;lat;lon;timestamp;pressure;altitude;pressure_sealevel;temperature;humidity
46714;BME280;32445;51.376;10.874;2023-05-08T00:02:24;100141.31;;;12.44;47.70
46714;BME280;32445;51.376;10.874;2023-05-08T00:05:24;100139.69;;;12.40;47.43
46714;BME280;32445;51.376;10.874;2023-05-08T00:08:24;100133.66;;;12.36;47.66
46714;BME280;32445;51.376;10.874;2023-05-08T00:11:25;100137.22;;;12.32;47.55
46714;BME280;32445;51.376;10.874;2023-05-08T00:14:25;100133.03;;;12.28;48.03
46714;BME280;32445;51.376;10.874;2023-05-08T00:17:25;100127.91;;;12.23;47.71
46714;BME280;32445;51.376;10.874;2023-05-08T00:20:26;100132.34;;;12.20;47.93
46714;BME280;32445;51.376;10.874;2023-05-08T00:23:27;100135.00;;;12.17;47.90
46714;BME280;32445;51.376;10.874;2023-05-08T00:26:27;100123.78;;;12.13;47.52
46714;BME280;32445;51.376;10.874;2023-05-08T00:29:27;100123.91;;;12.08;48.17
46714;BME280;32445;51.376;10.874;2023-05-08T00:32:27;100123.09;;;12.05;47.78
46714;BME280;32445;51.376;10.874;2023-05-08T00:35:28;100119.72;;;12.01;48.09
46714;BME280;32445;51.376;10.874;2023-05-08T00:38:35;100122.44;;;11.97;48.39
46714;BME280;32445;51.376;10.874;2023-05-08T00:41:35;100127.69;;;11.92;47.98
46714;BME280;32445;51.376;10.874;2023-05-08T00:44:36;100138.13;;;11.90;48.39
46714;BME280;32445;51.376;10.874;2023-05-08T00:47:38;100125.22;;;11.86;48.10
46714;BME280;32445;51.376;10.874;2023-05-08T00:50:39;100126.19;;;11.82;48.08
46714;BME280;32445;51.376;10.874;2023-05-08T00:53:41;100136.69;;;11.77;48.21
46714;BME280;32445;51.376;10.874;2023-05-08T00:56:42;100135.91;;;11.73;48.13
46714;BME280;32445;51.376;10.874;2023-05-08T00:59:44;100132.47;;;11.71;47.79
46714;BME280;32445;51.376;10.874;2023-05-08T01:02:46;100128.19;;;11.69;47.55
46714;BME280;32445;51.376;10.874;2023-05-08T01:05:47;100124.00;;;11.62;48.26
46714;BME280;32445;51.376;10.874;2023-05-08T01:08:47;100121.50;;;11.57;48.10
46714;BME280;32445;51.376;10.874;2023-05-08T01:12:09;100127.72;;;11.50;48.59
46714;BME280;32445;51.376;10.874;2023-05-08T01:15:18;100134.69;;;11.46;48.56
46714;BME280;32445;51.376;10.874;2023-05-08T01:18:27;100132.19;;;11.41;48.68
46714;BME280;32445;51.376;10.874;2023-05-08T01:21:37;100138.34;;;11.37;48.34
46714;BME280;32445;51.376;10.874;2023-05-08T01:34:32;100136.09;;;11.20;48.01
46714;BME280;32445;51.376;10.874;2023-05-08T01:37:39;100140.50;;;11.15;48.11
46714;BME280;32445;51.376;10.874;2023-05-08T01:43:52;100141.53;;;11.06;48.39
46714;BME280;32445;51.376;10.874;2023-05-08T01:46:54;100145.91;;;11.03;48.33
46714;BME280;32445;51.376;10.874;2023-05-08T01:50:18;100145.16;;;10.96;48.30
46714;BME280;32445;51.376;10.874;2023-05-08T01:53:25;100146.06;;;10.94;48.70
46714;BME280;32445;51.376;10.874;2023-05-08T01:56:28;100140.97;;;10.89;48.31
46714;BME280;32445;51.376;10.874;2023-05-08T01:59:30;100141.94;;;10.83;48.14
46714;BME280;32445;51.376;10.874;2023-05-08T02:02:33;100148.06;;;10.79;48.23
46714;BME280;32445;51.376;10.874;2023-05-08T02:05:36;100155.94;;;10.75;48.18
46714;BME280;32445;51.376;10.874;2023-05-08T02:08:37;100148.16;;;10.71;48.20
46714;BME280;32445;51.376;10.874;2023-05-08T02:11:38;100152.56;;;10.68;48.89
46714;BME280;32445;51.376;10.874;2023-05-08T02:14:41;100153.50;;;10.64;49.27
46714;BME280;32445;51.376;10.874;2023-05-08T02:17:42;100149.19;;;10.61;48.85
46714;BME280;32445;51.376;10.874;2023-05-08T02:20:45;100144.09;;;10.56;48.81
46714;BME280;32445;51.376;10.874;2023-05-08T02:23:47;100146.72;;;10.53;48.35
46714;BME280;32445;51.376;10.874;2023-05-08T02:26:49;100151.09;;;10.50;48.70
46714;BME280;32445;51.376;10.874;2023-05-08T02:29:51;100152.91;;;10.46;48.52
46714;BME280;32445;51.376;10.874;2023-05-08T02:32:54;100154.69;;;10.41;48.72
46714;BME280;32445;51.376;10.874;2023-05-08T02:35:55;100157.31;;;10.39;49.25
46714;BME280;32445;51.376;10.874;2023-05-08T02:38:57;100155.66;;;10.35;49.17
46714;BME280;32445;51.376;10.874;2023-05-08T02:41:58;100153.09;;;10.31;49.03
46714;BME280;32445;51.376;10.874;2023-05-08T02:44:59;100146.22;;;10.27;48.98
46714;BME280;32445;51.376;10.874;2023-05-08T02:48:13;100154.94;;;10.22;49.42
46714;BME280;32445;51.376;10.874;2023-05-08T02:51:27;100155.84;;;10.21;48.98
46714;BME280;32445;51.376;10.874;2023-05-08T02:54:52;100148.97;;;10.14;49.37
46714;BME280;32445;51.376;10.874;2023-05-08T02:58:10;100145.56;;;10.12;49.42
46714;BME280;32445;51.376;10.874;2023-05-08T03:01:30;100147.38;;;10.09;49.56
46714;BME280;32445;51.376;10.874;2023-05-08T03:04:39;100149.97;;;10.05;49.40
46714;BME280;32445;51.376;10.874;2023-05-08T03:07:41;100149.16;;;10.03;48.97
46714;BME280;32445;51.376;10.874;2023-05-08T03:10:45;100142.25;;;10.01;49.38
46714;BME280;32445;51.376;10.874;2023-05-08T03:13:50;100144.91;;;9.98;50.07
46714;BME280;32445;51.376;10.874;2023-05-08T03:16:56;100153.56;;;9.95;49.55
46714;BME280;32445;51.376;10.874;2023-05-08T03:20:02;100157.06;;;9.93;50.00
46714;BME280;32445;51.376;10.874;2023-05-08T03:23:07;100151.91;;;9.91;49.90
46714;BME280;32445;51.376;10.874;2023-05-08T03:26:09;100158.88;;;9.87;49.54
46714;BME280;32445;51.376;10.874;2023-05-08T03:29:12;100145.94;;;9.86;50.01
46714;BME280;32445;51.376;10.874;2023-05-08T03:32:13;100147.66;;;9.84;49.34
46714;BME280;32445;51.376;10.874;2023-05-08T03:35:14;100135.59;;;9.81;49.22
46714;BME280;32445;51.376;10.874;2023-05-08T03:38:15;100145.16;;;9.79;49.61
46714;BME280;32445;51.376;10.874;2023-05-08T03:41:16;100148.59;;;9.78;49.41
46714;BME280;32445;51.376;10.874;2023-05-08T03:44:16;100148.66;;;9.75;49.54
46714;BME280;32445;51.376;10.874;2023-05-08T03:47:19;100147.81;;;9.75;49.70
46714;BME280;32445;51.376;10.874;2023-05-08T03:50:19;100151.25;;;9.75;49.66
46714;BME280;32445;51.376;10.874;2023-05-08T03:53:21;100149.50;;;9.74;48.79
46714;BME280;32445;51.376;10.874;2023-05-08T03:56:21;100149.56;;;9.71;49.27
46714;BME280;32445;51.376;10.874;2023-05-08T04:02:46;100149.63;;;9.65;50.60
46714;BME280;32445;51.376;10.874;2023-05-08T04:05:58;100148.78;;;9.64;50.03
46714;BME280;32445;51.376;10.874;2023-05-08T04:09:42;100147.91;;;9.65;49.55
46714;BME280;32445;51.376;10.874;2023-05-08T04:16:16;100147.91;;;9.64;50.41
46714;BME280;32445;51.376;10.874;2023-05-08T04:19:27;100153.06;;;9.65;50.30
46714;BME280;32445;51.376;10.874;2023-05-08T04:22:31;100143.59;;;9.66;50.84
46714;BME280;32445;51.376;10.874;2023-05-08T04:25:35;100151.38;;;9.66;50.51
46714;BME280;32445;51.376;10.874;2023-05-08T04:28:36;100162.56;;;9.68;50.65
46714;BME280;32445;51.376;10.874;2023-05-08T04:31:37;100154.78;;;9.68;51.01
46714;BME280;32445;51.376;10.874;2023-05-08T04:34:38;100158.22;;;9.70;50.73
46714;BME280;32445;51.376;10.874;2023-05-08T04:37:41;100154.75;;;9.71;51.14
46714;BME280;32445;51.376;10.874;2023-05-08T04:40:44;100161.66;;;9.72;51.50
46714;BME280;32445;51.376;10.874;2023-05-08T04:43:44;100165.09;;;9.73;51.33
46714;BME280;32445;51.376;10.874;2023-05-08T04:46:45;100168.53;;;9.75;51.92
46714;BME280;32445;51.376;10.874;2023-05-08T04:49:45;100169.38;;;9.75;51.84
46714;BME280;32445;51.376;10.874;2023-05-08T04:52:46;100168.53;;;9.76;51.83
46714;BME280;32445;51.376;10.874;2023-05-08T04:55:46;100164.19;;;9.77;52.06
46714;BME280;32445;51.376;10.874;2023-05-08T04:58:46;100172.84;;;9.77;51.92
46714;BME280;32445;51.376;10.874;2023-05-08T05:01:47;100169.34;;;9.78;51.75
46714;BME280;32445;51.376;10.874;2023-05-08T05:04:50;100180.59;;;9.79;51.78
46714;BME280;32445;51.376;10.874;2023-05-08T05:07:50;100173.66;;;9.79;51.76
46714;BME280;32445;51.376;10.874;2023-05-08T05:10:51;100181.41;;;9.81;52.08
46714;BME280;32445;51.376;10.874;2023-05-08T05:13:51;100181.41;;;9.81;52.21
46714;BME280;32445;51.376;10.874;2023-05-08T05:16:52;100183.13;;;9.83;51.95
46714;BME280;32445;51.376;10.874;2023-05-08T05:19:52;100177.06;;;9.86;51.92
46714;BME280;32445;51.376;10.874;2023-05-08T05:22:52;100181.34;;;9.89;51.75
46714;BME280;32445;51.376;10.874;2023-05-08T05:26:02;100176.13;;;9.90;52.38
46714;BME280;32445;51.376;10.874;2023-05-08T05:29:02;100182.13;;;9.94;52.56
46714;BME280;32445;51.376;10.874;2023-05-08T05:32:03;100179.50;;;9.95;52.30
46714;BME280;32445;51.376;10.874;2023-05-08T05:35:06;100183.78;;;9.99;52.77
46714;BME280;32445;51.376;10.874;2023-05-08T05:38:07;100186.34;;;10.01;52.63
46714;BME280;32445;51.376;10.874;2023-05-08T05:41:07;100188.94;;;10.01;52.67
46714;BME280;32445;51.376;10.874;2023-05-08T05:44:07;100185.56;;;9.94;53.43
46714;BME280;32445;51.376;10.874;2023-05-08T05:47:08;100186.44;;;9.95;53.58
46714;BME280;32445;51.376;10.874;2023-05-08T05:50:09;100190.75;;;9.96;53.53
46714;BME280;32445;51.376;10.874;2023-05-08T05:53:10;100192.41;;;10.00;52.96
46714;BME280;32445;51.376;10.874;2023-05-08T05:56:10;100188.03;;;10.05;53.06
46714;BME280;32445;51.376;10.874;2023-05-08T05:59:10;100189.75;;;10.06;53.27
46714;BME280;32445;51.376;10.874;2023-05-08T06:02:11;100192.34;;;10.08;53.18
46714;BME280;32445;51.376;10.874;2023-05-08T06:05:17;100196.59;;;10.12;53.37
46714;BME280;32445;51.376;10.874;2023-05-08T06:08:22;100189.66;;;10.14;52.77
46714;BME280;32445;51.376;10.874;2023-05-08T06:11:22;100194.78;;;10.18;53.65
46714;BME280;32445;51.376;10.874;2023-05-08T06:14:23;100189.56;;;10.20;53.54
46714;BME280;32445;51.376;10.874;2023-05-08T06:17:23;100189.56;;;10.21;53.13
46714;BME280;32445;51.376;10.874;2023-05-08T06:20:24;100186.09;;;10.21;53.57
46714;BME280;32445;51.376;10.874;2023-05-08T06:23:24;100192.13;;;10.23;54.39
46714;BME280;32445;51.376;10.874;2023-05-08T06:26:26;100190.38;;;10.25;53.99
46714;BME280;32445;51.376;10.874;2023-05-08T06:29:26;100192.91;;;10.28;54.32
46714;BME280;32445;51.376;10.874;2023-05-08T06:32:26;100194.59;;;10.32;54.30
46714;BME280;32445;51.376;10.874;2023-05-08T06:35:27;100196.28;;;10.36;54.36
46714;BME280;32445;51.376;10.874;2023-05-08T06:38:27;100200.59;;;10.39;55.04
46714;BME280;32445;51.376;10.874;2023-05-08T06:41:27;100191.03;;;10.41;54.45
46714;BME280;32445;51.376;10.874;2023-05-08T06:44:27;100188.38;;;10.44;54.97
46714;BME280;32445;51.376;10.874;2023-05-08T06:47:28;100179.63;;;10.51;54.29
46714;BME280;32445;51.376;10.874;2023-05-08T06:50:28;100178.69;;;10.57;54.56
46714;BME280;32445;51.376;10.874;2023-05-08T06:53:29;100178.63;;;10.62;54.83
46714;BME280;32445;51.376;10.874;2023-05-08T06:56:29;100181.13;;;10.68;54.38
46714;BME280;32445;51.376;10.874;2023-05-08T06:59:30;100177.56;;;10.73;54.17
46714;BME280;32445;51.376;10.874;2023-05-08T07:02:30;100173.13;;;10.82;54.97
46714;BME280;32445;51.376;10.874;2023-05-08T07:05:31;100179.94;;;10.89;54.88
46714;BME280;32445;51.376;10.874;2023-05-08T07:08:31;100181.53;;;10.96;54.96
46714;BME280;32445;51.376;10.874;2023-05-08T07:11:32;100184.88;;;11.03;54.70
46714;BME280;32445;51.376;10.874;2023-05-08T07:14:32;100176.13;;;11.08;55.00
46714;BME280;32445;51.376;10.874;2023-05-08T07:17:32;100182.13;;;11.12;55.01
46714;BME280;32445;51.376;10.874;2023-05-08T07:20:35;100186.38;;;11.16;55.49
46714;BME280;32445;51.376;10.874;2023-05-08T07:23:36;100180.19;;;11.23;54.79
46714;BME280;32445;51.376;10.874;2023-05-08T07:26:36;100174.06;;;11.28;55.37
46714;BME280;32445;51.376;10.874;2023-05-08T07:29:37;100182.63;;;11.33;54.99
46714;BME280;32445;51.376;10.874;2023-05-08T07:32:37;100179.09;;;11.35;55.47
46714;BME280;32445;51.376;10.874;2023-05-08T07:35:38;100174.69;;;11.39;55.36
46714;BME280;32445;51.376;10.874;2023-05-08T07:38:39;100173.69;;;11.48;55.18
46714;BME280;32445;51.376;10.874;2023-05-08T07:41:40;100176.09;;;11.57;55.34
46714;BME280;32445;51.376;10.874;2023-05-08T07:44:40;100168.13;;;11.65;55.50
46714;BME280;32445;51.376;10.874;2023-05-08T07:47:49;100173.22;;;11.71;55.63
46714;BME280;32445;51.376;10.874;2023-05-08T07:50:49;100172.16;;;11.81;55.26
46714;BME280;32445;51.376;10.874;2023-05-08T07:53:50;100171.97;;;11.89;55.38
46714;BME280;32445;51.376;10.874;2023-05-08T07:56:50;100171.88;;;11.97;54.96
46714;BME280;32445;51.376;10.874;2023-05-08T07:59:51;100170.00;;;12.02;55.25
46714;BME280;32445;51.376;10.874;2023-05-08T08:02:51;100170.75;;;12.08;54.79
46714;BME280;32445;51.376;10.874;2023-05-08T08:05:52;100172.34;;;12.14;55.41
46714;BME280;32445;51.376;10.874;2023-05-08T08:08:52;100170.41;;;12.24;55.08
46714;BME280;32445;51.376;10.874;2023-05-08T08:11:52;100171.06;;;12.32;55.32
46714;BME280;32445;51.376;10.874;2023-05-08T08:14:53;100169.13;;;12.42;54.97
46714;BME280;32445;51.376;10.874;2023-05-08T08:17:54;100164.56;;;12.52;55.19
46714;BME280;32445;51.376;10.874;2023-05-08T08:20:54;100159.16;;;12.61;54.84
46714;BME280;32445;51.376;10.874;2023-05-08T08:23:54;100167.56;;;12.71;54.89
46714;BME280;32445;51.376;10.874;2023-05-08T08:26:55;100166.47;;;12.81;54.59
46714;BME280;32445;51.376;10.874;2023-05-08T08:29:55;100163.63;;;12.90;54.59
46714;BME280;32445;51.376;10.874;2023-05-08T08:32:55;100163.38;;;13.01;54.55
46714;BME280;32445;51.376;10.874;2023-05-08T08:35:56;100170.91;;;13.12;54.45
46714;BME280;32445;51.376;10.874;2023-05-08T08:38:56;100174.03;;;13.25;54.47
46714;BME280;32445;51.376;10.874;2023-05-08T08:41:57;100173.81;;;13.34;54.52
46714;BME280;32445;51.376;10.874;2023-05-08T08:44:57;100168.31;;;13.45;54.42
46714;BME280;32445;51.376;10.874;2023-05-08T08:48:01;100165.44;;;13.56;53.99
46714;BME280;32445;51.376;10.874;2023-05-08T08:51:05;100172.88;;;13.68;53.97
46714;BME280;32445;51.376;10.874;2023-05-08T08:54:13;100169.94;;;13.80;53.47
46714;BME280;32445;51.376;10.874;2023-05-08T08:57:17;100170.41;;;13.95;53.13
46714;BME280;32445;51.376;10.874;2023-05-08T09:00:20;100164.81;;;14.07;53.19
46714;BME280;32445;51.376;10.874;2023-05-08T09:03:21;100160.03;;;14.22;53.12
46714;BME280;32445;51.376;10.874;2023-05-08T09:06:22;100160.34;;;14.39;52.96
46714;BME280;32445;51.376;10.874;2023-05-08T09:09:22;100170.19;;;14.59;52.90
46714;BME280;32445;51.376;10.874;2023-05-08T09:12:23;100166.91;;;14.81;52.77
46714;BME280;32445;51.376;10.874;2023-05-08T09:15:24;100169.66;;;15.03;52.12
46714;BME280;32445;51.376;10.874;2023-05-08T09:18:24;100162.69;;;15.27;51.96
46714;BME280;32445;51.376;10.874;2023-05-08T09:21:25;100161.91;;;15.50;51.29
46714;BME280;32445;51.376;10.874;2023-05-08T09:27:52;100167.84;;;16.03;50.06
46714;BME280;32445;51.376;10.874;2023-05-08T09:30:57;100165.97;;;16.29;50.27
46714;BME280;32445;51.376;10.874;2023-05-08T09:33:57;100171.19;;;16.52;49.77
46714;BME280;32445;51.376;10.874;2023-05-08T09:37:11;100158.16;;;16.71;48.94
46714;BME280;32445;51.376;10.874;2023-05-08T09:40:16;100168.69;;;16.92;48.91
46714;BME280;32445;51.376;10.874;2023-05-08T09:43:17;100162.69;;;17.10;48.76
46714;BME280;32445;51.376;10.874;2023-05-08T09:46:18;100166.22;;;17.30;49.10
46714;BME280;32445;51.376;10.874;2023-05-08T09:49:21;100163.72;;;17.47;48.37
46714;BME280;32445;51.376;10.874;2023-05-08T09:52:22;100169.91;;;17.66;48.28
46714;BME280;32445;51.376;10.874;2023-05-08T09:55:23;100171.72;;;17.84;47.29
46714;BME280;32445;51.376;10.874;2023-05-08T09:58:23;100174.50;;;18.00;47.31
46714;BME280;32445;51.376;10.874;2023-05-08T10:01:30;100174.72;;;18.14;45.98
46714;BME280;32445;51.376;10.874;2023-05-08T10:04:32;100173.84;;;18.33;46.22
46714;BME280;32445;51.376;10.874;2023-05-08T10:07:34;100179.88;;;18.54;46.25
46714;BME280;32445;51.376;10.874;2023-05-08T10:10:36;100179.88;;;18.72;44.88
46714;BME280;32445;51.376;10.874;2023-05-08T10:13:37;100179.25;;;18.84;45.61
46714;BME280;32445;51.376;10.874;2023-05-08T10:16:43;100183.94;;;18.96;45.57
46714;BME280;32445;51.376;10.874;2023-05-08T10:19:44;100189.00;;;19.18;44.63
46714;BME280;32445;51.376;10.874;2023-05-08T10:22:47;100179.63;;;19.30;44.74
46714;BME280;32445;51.376;10.874;2023-05-08T10:25:51;100177.88;;;19.47;44.62
46714;BME280;32445;51.376;10.874;2023-05-08T10:28:56;100175.13;;;19.66;44.36
46714;BME280;32445;51.376;10.874;2023-05-08T10:31:58;100180.28;;;19.85;44.37
46714;BME280;32445;51.376;10.874;2023-05-08T10:35:02;100174.69;;;20.07;43.04
46714;BME280;32445;51.376;10.874;2023-05-08T10:38:03;100161.28;;;20.28;43.42
46714;BME280;32445;51.376;10.874;2023-05-08T10:41:04;100164.63;;;20.46;42.63
46714;BME280;32445;51.376;10.874;2023-05-08T10:44:05;100159.41;;;20.60;41.46
46714;BME280;32445;51.376;10.874;2023-05-08T10:54:00;100151.81;;;21.31;41.45
46714;BME280;32445;51.376;10.874;2023-05-08T10:57:08;100148.34;;;21.59;40.77
46714;BME280;32445;51.376;10.874;2023-05-08T11:00:09;100143.91;;;21.88;40.16
46714;BME280;32445;51.376;10.874;2023-05-08T11:03:10;100141.28;;;22.16;39.70
46714;BME280;32445;51.376;10.874;2023-05-08T11:06:11;100141.84;;;22.35;38.83
46714;BME280;32445;51.376;10.874;2023-05-08T11:09:26;100147.09;;;22.62;38.82
46714;BME280;32445;51.376;10.874;2023-05-08T11:12:28;100139.00;;;22.91;38.39
46714;BME280;32445;51.376;10.874;2023-05-08T11:15:40;100138.50;;;23.12;38.16
46714;BME280;32445;51.376;10.874;2023-05-08T11:19:16;100136.63;;;23.40;37.85
46714;BME280;32445;51.376;10.874;2023-05-08T11:22:22;100132.56;;;23.73;37.44
46714;BME280;32445;51.376;10.874;2023-05-08T11:25:40;100123.16;;;24.06;37.01
46714;BME280;32445;51.376;10.874;2023-05-08T11:28:56;100127.44;;;24.44;36.52
46714;BME280;32445;51.376;10.874;2023-05-08T11:31:56;100130.47;;;24.75;35.95
46714;BME280;32445;51.376;10.874;2023-05-08T11:34:57;100128.59;;;24.99;35.08
46714;BME280;32445;51.376;10.874;2023-05-08T11:41:26;100123.91;;;25.26;34.67
46714;BME280;32445;51.376;10.874;2023-05-08T11:44:27;100118.19;;;25.32;34.30
46714;BME280;32445;51.376;10.874;2023-05-08T11:47:36;100116.72;;;25.39;33.77
46714;BME280;32445;51.376;10.874;2023-05-08T11:50:37;100115.75;;;25.51;34.29
46714;BME280;32445;51.376;10.874;2023-05-08T11:53:38;100105.59;;;25.68;34.11
46714;BME280;32445;51.376;10.874;2023-05-08T11:56:39;100111.09;;;25.87;33.68
46714;BME280;32445;51.376;10.874;2023-05-08T11:59:40;100099.38;;;26.01;33.15
46714;BME280;32445;51.376;10.874;2023-05-08T12:02:42;100106.47;;;26.23;33.26
46714;BME280;32445;51.376;10.874;2023-05-08T12:05:45;100109.75;;;26.48;33.13
46714;BME280;32445;51.376;10.874;2023-05-08T12:08:46;100108.81;;;26.70;34.65
46714;BME280;32445;51.376;10.874;2023-05-08T12:11:57;100100.69;;;26.93;32.83
46714;BME280;32445;51.376;10.874;2023-05-08T12:14:57;100100.81;;;27.13;31.30
46714;BME280;32445;51.376;10.874;2023-05-08T12:18:01;100105.03;;;27.25;31.97
46714;BME280;32445;51.376;10.874;2023-05-08T12:21:04;100080.88;;;27.38;31.32
46714;BME280;32445;51.376;10.874;2023-05-08T12:24:06;100086.00;;;27.60;31.70
46714;BME280;32445;51.376;10.874;2023-05-08T12:27:07;100092.66;;;27.86;31.87
46714;BME280;32445;51.376;10.874;2023-05-08T12:30:10;100082.03;;;28.05;31.87
46714;BME280;32445;51.376;10.874;2023-05-08T12:33:11;100088.06;;;28.27;30.35
46714;BME280;32445;51.376;10.874;2023-05-08T12:36:12;100078.13;;;28.48;30.44
46714;BME280;32445;51.376;10.874;2023-05-08T12:39:15;100078.25;;;28.67;30.17
46714;BME280;32445;51.376;10.874;2023-05-08T12:42:15;100079.34;;;28.83;29.38
46714;BME280;32445;51.376;10.874;2023-05-08T12:48:20;100072.91;;;29.14;28.20
46714;BME280;32445;51.376;10.874;2023-05-08T12:51:29;100079.09;;;29.24;28.97
46714;BME280;32445;51.376;10.874;2023-05-08T12:54:45;100066.47;;;29.44;28.41
46714;BME280;32445;51.376;10.874;2023-05-08T12:57:45;100062.47;;;29.58;28.48
46714;BME280;32445;51.376;10.874;2023-05-08T13:00:47;100062.56;;;29.66;27.75
46714;BME280;32445;51.376;10.874;2023-05-08T13:03:51;100062.50;;;29.76;28.42
46714;BME280;32445;51.376;10.874;2023-05-08T13:06:54;100061.31;;;29.89;27.64
46714;BME280;32445;51.376;10.874;2023-05-08T13:09:56;100059.09;;;30.02;28.08
46714;BME280;32445;51.376;10.874;2023-05-08T13:12:57;100058.72;;;30.15;27.17
46714;BME280;32445;51.376;10.874;2023-05-08T13:16:01;100058.34;;;30.28;27.05
46714;BME280;32445;51.376;10.874;2023-05-08T13:19:02;100053.41;;;30.41;26.58
46714;BME280;32445;51.376;10.874;2023-05-08T13:22:02;100055.16;;;30.50;27.19
46714;BME280;32445;51.376;10.874;2023-05-08T13:25:02;100056.13;;;30.67;29.35
46714;BME280;32445;51.376;10.874;2023-05-08T13:28:05;100047.31;;;30.75;25.73
46714;BME280;32445;51.376;10.874;2023-05-08T13:31:06;100043.75;;;30.66;26.78
46714;BME280;32445;51.376;10.874;2023-05-08T13:34:06;100048.88;;;30.60;27.09
46714;BME280;32445;51.376;10.874;2023-05-08T13:37:07;100046.72;;;30.63;28.91
46714;BME280;32445;51.376;10.874;2023-05-08T13:40:07;100042.97;;;30.74;27.70
46714;BME280;32445;51.376;10.874;2023-05-08T13:43:08;100055.94;;;30.87;29.55
46714;BME280;32445;51.376;10.874;2023-05-08T13:46:08;100052.59;;;30.93;27.15
46714;BME280;32445;51.376;10.874;2023-05-08T13:49:08;100046.25;;;30.94;29.75
46714;BME280;32445;51.376;10.874;2023-05-08T13:52:09;100044.53;;;30.85;26.93
46714;BME280;32445;51.376;10.874;2023-05-08T13:55:11;100040.84;;;30.86;29.38
46714;BME280;32445;51.376;10.874;2023-05-08T13:58:11;100047.63;;;30.98;30.23
46714;BME280;32445;51.376;10.874;2023-05-08T14:01:11;100045.53;;;31.10;26.86
46714;BME280;32445;51.376;10.874;2023-05-08T14:04:12;100046.06;;;31.22;28.92
46714;BME280;32445;51.376;10.874;2023-05-08T14:07:12;100038.44;;;31.35;26.88
46714;BME280;32445;51.376;10.874;2023-05-08T14:10:12;100036.94;;;31.41;28.98
46714;BME280;32445;51.376;10.874;2023-05-08T14:13:13;100039.13;;;31.46;26.48
46714;BME280;32445;51.376;10.874;2023-05-08T14:16:13;100043.50;;;31.55;29.10
46714;BME280;32445;51.376;10.874;2023-05-08T14:19:15;100042.72;;;31.63;25.57
46714;BME280;32445;51.376;10.874;2023-05-08T14:22:16;100038.88;;;31.65;24.33
46714;BME280;32445;51.376;10.874;2023-05-08T14:25:16;100037.03;;;31.66;27.76
46714;BME280;32445;51.376;10.874;2023-05-08T14:28:16;100041.91;;;31.70;25.55
46714;BME280;32445;51.376;10.874;2023-05-08T14:31:17;100020.09;;;31.73;28.19
46714;BME280;32445;51.376;10.874;2023-05-08T14:34:17;100026.00;;;31.77;25.61
46714;BME280;32445;51.376;10.874;2023-05-08T14:37:17;100020.63;;;31.77;25.48
46714;BME280;32445;51.376;10.874;2023-05-08T14:40:18;100022.63;;;31.83;28.08
46714;BME280;32445;51.376;10.874;2023-05-08T14:43:19;100019.59;;;31.86;25.06
46714;BME280;32445;51.376;10.874;2023-05-08T14:46:19;100017.63;;;31.88;24.60
46714;BME280;32445;51.376;10.874;2023-05-08T14:49:20;100018.78;;;31.94;27.50
46714;BME280;32445;51.376;10.874;2023-05-08T14:52:20;100020.31;;;31.88;24.72
46714;BME280;32445;51.376;10.874;2023-05-08T14:55:20;100020.81;;;31.84;27.46
46714;BME280;32445;51.376;10.874;2023-05-08T14:58:21;100015.44;;;31.84;25.40
46714;BME280;32445;51.376;10.874;2023-05-08T15:01:21;100016.75;;;31.88;27.99
46714;BME280;32445;51.376;10.874;2023-05-08T15:04:22;100011.22;;;31.89;24.71
46714;BME280;32445;51.376;10.874;2023-05-08T15:07:22;100014.41;;;31.85;24.49
46714;BME280;32445;51.376;10.874;2023-05-08T15:10:22;100012.06;;;31.82;23.64
46714;BME280;32445;51.376;10.874;2023-05-08T15:13:23;100016.09;;;31.78;24.20
46714;BME280;32445;51.376;10.874;2023-05-08T15:16:23;100009.03;;;31.77;23.68
46714;BME280;32445;51.376;10.874;2023-05-08T15:19:24;100009.03;;;31.77;24.46
46714;BME280;32445;51.376;10.874;2023-05-08T15:22:24;99997.44;;;31.68;23.68
46714;BME280;32445;51.376;10.874;2023-05-08T15:25:24;99997.06;;;31.54;24.06
46714;BME280;32445;51.376;10.874;2023-05-08T15:28:25;99982.81;;;31.54;23.59
46714;BME280;32445;51.376;10.874;2023-05-08T15:31:25;99985.16;;;31.49;22.95
46714;BME280;32445;51.376;10.874;2023-05-08T15:34:25;99990.50;;;31.49;24.07
46714;BME280;32445;51.376;10.874;2023-05-08T15:37:26;99983.28;;;31.49;24.25
46714;BME280;32445;51.376;10.874;2023-05-08T15:40:26;99985.50;;;31.54;27.34
46714;BME280;32445;51.376;10.874;2023-05-08T15:43:27;99983.63;;;31.46;24.61
46714;BME280;32445;51.376;10.874;2023-05-08T15:46:27;99975.91;;;31.43;23.95
46714;BME280;32445;51.376;10.874;2023-05-08T15:49:27;99979.41;;;31.44;23.69
46714;BME280;32445;51.376;10.874;2023-05-08T15:52:28;99979.28;;;31.45;24.02
46714;BME280;32445;51.376;10.874;2023-05-08T15:55:28;99977.59;;;31.44;24.02
46714;BME280;32445;51.376;10.874;2023-05-08T15:58:28;99967.69;;;31.45;24.12
46714;BME280;32445;51.376;10.874;2023-05-08T16:01:29;99968.38;;;31.47;27.03
46714;BME280;32445;51.376;10.874;2023-05-08T16:04:29;99964.69;;;31.48;24.13
46714;BME280;32445;51.376;10.874;2023-05-08T16:07:29;99957.47;;;31.40;23.60
46714;BME280;32445;51.376;10.874;2023-05-08T16:10:30;99961.81;;;31.33;23.83
46714;BME280;32445;51.376;10.874;2023-05-08T16:13:30;99970.34;;;31.28;24.09
46714;BME280;32445;51.376;10.874;2023-05-08T16:16:31;99964.78;;;31.21;23.16
46714;BME280;32445;51.376;10.874;2023-05-08T16:19:36;99962.94;;;31.14;23.32
46714;BME280;32445;51.376;10.874;2023-05-08T16:22:36;99968.94;;;31.08;24.03